sensor_id;sensor_type;location;lat;lon;timestamp;temperature;humidity
23715;DHT22;12036;50.858;4.472;2023-11-21T00:01:58;10.10;99.90
23715;DHT22;12036;50.858;4.472;2023-11-21T00:04:24;10.10;99.90
23715;DHT22;12036;50.858;4.472;2023-11-21T00:06:50;10.10;99.90
23715;DHT22;12036;50.858;4.472;2023-11-21T00:09:16;10.10;99.90
23715;DHT22;12036;50.858;4.472;2023-11-21T00:11:43;10.10;99.90
23715;DHT22;12036;50.858;4.472;2023-11-21T00:14:10;10.10;99.90
23715;DHT22;12036;50.858;4.472;2023-11-21T00:16:36;10.10;99.90
23715;DHT22;12036;50.858;4.472;2023-11-21T00:19:01;10.10;99.90
23715;DHT22;12036;50.858;4.472;2023-11-21T00:21:27;10.00;99.90
23715;DHT22;12036;50.858;4.472;2023-11-21T00:23:53;10.00;99.90
23715;DHT22;12036;50.858;4.472;2023-11-21T00:26:18;10.10;99.90
23715;DHT22;12036;50.858;4.472;2023-11-21T00:28:44;10.00;99.90
23715;DHT22;12036;50.858;4.472;2023-11-21T00:31:10;10.00;99.90
23715;DHT22;12036;50.858;4.472;2023-11-21T00:33:36;10.00;99.90
23715;DHT22;12036;50.858;4.472;2023-11-21T00:36:02;10.00;99.90
23715;DHT22;12036;50.858;4.472;2023-11-21T00:38:28;10.00;99.90
23715;DHT22;12036;50.858;4.472;2023-11-21T00:40:53;10.00;99.90
23715;DHT22;12036;50.858;4.472;2023-11-21T00:43:22;10.00;99.90
23715;DHT22;12036;50.858;4.472;2023-11-21T00:45:48;10.00;99.90
23715;DHT22;12036;50.858;4.472;2023-11-21T00:48:16;10.00;99.90
23715;DHT22;12036;50.858;4.472;2023-11-21T00:50:43;10.00;99.90
23715;DHT22;12036;50.858;4.472;2023-11-21T00:53:09;10.00;99.90
23715;DHT22;12036;50.858;4.472;2023-11-21T00:55:36;9.90;99.90
23715;DHT22;12036;50.858;4.472;2023-11-21T00:58:02;9.90;99.90
23715;DHT22;12036;50.858;4.472;2023-11-21T01:00:29;9.80;99.90
23715;DHT22;12036;50.858;4.472;2023-11-21T01:02:55;9.80;99.90
23715;DHT22;12036;50.858;4.472;2023-11-21T01:05:21;9.80;99.90
23715;DHT22;12036;50.858;4.472;2023-11-21T01:07:46;9.70;99.90
23715;DHT22;12036;50.858;4.472;2023-11-21T01:10:12;9.70;99.90
23715;DHT22;12036;50.858;4.472;2023-11-21T01:12:38;9.70;99.90
23715;DHT22;12036;50.858;4.472;2023-11-21T01:15:05;9.70;99.90
23715;DHT22;12036;50.858;4.472;2023-11-21T01:17:35;9.70;99.90
23715;DHT22;12036;50.858;4.472;2023-11-21T01:20:04;9.70;99.90
23715;DHT22;12036;50.858;4.472;2023-11-21T01:22:37;9.70;99.90
23715;DHT22;12036;50.858;4.472;2023-11-21T01:25:03;9.70;99.90
23715;DHT22;12036;50.858;4.472;2023-11-21T01:27:34;9.70;99.90
23715;DHT22;12036;50.858;4.472;2023-11-21T01:30:01;9.70;99.90
23715;DHT22;12036;50.858;4.472;2023-11-21T01:32:26;9.70;99.90
23715;DHT22;12036;50.858;4.472;2023-11-21T01:34:52;9.70;99.90
23715;DHT22;12036;50.858;4.472;2023-11-21T01:37:17;9.70;99.90
23715;DHT22;12036;50.858;4.472;2023-11-21T01:39:43;9.70;99.90
23715;DHT22;12036;50.858;4.472;2023-11-21T01:42:10;9.70;99.90
23715;DHT22;12036;50.858;4.472;2023-11-21T01:44:36;9.70;99.90
23715;DHT22;12036;50.858;4.472;2023-11-21T01:47:02;9.80;99.90
23715;DHT22;12036;50.858;4.472;2023-11-21T01:49:31;9.80;99.90
23715;DHT22;12036;50.858;4.472;2023-11-21T01:51:59;9.80;99.90
23715;DHT22;12036;50.858;4.472;2023-11-21T01:54:25;9.80;99.90
23715;DHT22;12036;50.858;4.472;2023-11-21T01:56:51;9.90;99.90
23715;DHT22;12036;50.858;4.472;2023-11-21T01:59:21;9.90;99.90
23715;DHT22;12036;50.858;4.472;2023-11-21T02:01:49;9.90;99.90
23715;DHT22;12036;50.858;4.472;2023-11-21T02:04:16;9.90;99.90
23715;DHT22;12036;50.858;4.472;2023-11-21T02:06:41;10.00;99.90
23715;DHT22;12036;50.858;4.472;2023-11-21T02:09:07;10.00;99.90
23715;DHT22;12036;50.858;4.472;2023-11-21T02:11:34;9.90;99.90
23715;DHT22;12036;50.858;4.472;2023-11-21T02:14:00;10.00;99.90
23715;DHT22;12036;50.858;4.472;2023-11-21T02:16:26;10.00;99.90
23715;DHT22;12036;50.858;4.472;2023-11-21T02:18:53;10.00;99.90
23715;DHT22;12036;50.858;4.472;2023-11-21T02:21:18;10.00;99.90
23715;DHT22;12036;50.858;4.472;2023-11-21T02:23:45;10.00;99.90
23715;DHT22;12036;50.858;4.472;2023-11-21T02:26:12;10.00;99.90
23715;DHT22;12036;50.858;4.472;2023-11-21T02:28:39;9.90;99.90
23715;DHT22;12036;50.858;4.472;2023-11-21T02:31:05;9.90;99.90
23715;DHT22;12036;50.858;4.472;2023-11-21T02:33:33;9.90;99.90
23715;DHT22;12036;50.858;4.472;2023-11-21T02:36:02;9.90;99.90
23715;DHT22;12036;50.858;4.472;2023-11-21T02:38:28;9.90;99.90
23715;DHT22;12036;50.858;4.472;2023-11-21T02:40:54;9.90;99.90
23715;DHT22;12036;50.858;4.472;2023-11-21T02:43:19;9.90;99.90
23715;DHT22;12036;50.858;4.472;2023-11-21T02:45:45;9.80;99.90
23715;DHT22;12036;50.858;4.472;2023-11-21T02:48:11;9.80;99.90
23715;DHT22;12036;50.858;4.472;2023-11-21T02:50:37;9.90;99.90
23715;DHT22;12036;50.858;4.472;2023-11-21T02:53:03;9.90;99.90
23715;DHT22;12036;50.858;4.472;2023-11-21T02:55:31;9.90;99.90
23715;DHT22;12036;50.858;4.472;2023-11-21T02:58:00;9.90;99.90
23715;DHT22;12036;50.858;4.472;2023-11-21T03:00:26;9.90;99.90
23715;DHT22;12036;50.858;4.472;2023-11-21T03:02:54;10.00;99.90
23715;DHT22;12036;50.858;4.472;2023-11-21T03:05:20;9.90;99.90
23715;DHT22;12036;50.858;4.472;2023-11-21T03:07:46;10.00;99.90
23715;DHT22;12036;50.858;4.472;2023-11-21T03:10:12;10.00;99.90
23715;DHT22;12036;50.858;4.472;2023-11-21T03:12:39;10.00;99.90
23715;DHT22;12036;50.858;4.472;2023-11-21T03:15:08;10.00;99.90
23715;DHT22;12036;50.858;4.472;2023-11-21T03:17:36;10.00;99.90
23715;DHT22;12036;50.858;4.472;2023-11-21T03:20:03;10.10;99.90
23715;DHT22;12036;50.858;4.472;2023-11-21T03:22:29;10.10;99.90
23715;DHT22;12036;50.858;4.472;2023-11-21T03:24:55;10.10;99.90
23715;DHT22;12036;50.858;4.472;2023-11-21T03:27:21;10.10;99.90
23715;DHT22;12036;50.858;4.472;2023-11-21T03:29:48;10.10;99.90
23715;DHT22;12036;50.858;4.472;2023-11-21T03:32:14;10.10;99.90
23715;DHT22;12036;50.858;4.472;2023-11-21T03:35:12;10.10;99.90
23715;DHT22;12036;50.858;4.472;2023-11-21T03:37:38;10.10;99.90
23715;DHT22;12036;50.858;4.472;2023-11-21T03:40:07;10.10;99.90
23715;DHT22;12036;50.858;4.472;2023-11-21T03:42:34;10.10;99.90
23715;DHT22;12036;50.858;4.472;2023-11-21T03:45:00;10.10;99.90
23715;DHT22;12036;50.858;4.472;2023-11-21T03:47:27;10.10;99.90
23715;DHT22;12036;50.858;4.472;2023-11-21T03:49:53;10.20;99.90
23715;DHT22;12036;50.858;4.472;2023-11-21T03:52:19;10.10;99.90
23715;DHT22;12036;50.858;4.472;2023-11-21T03:54:44;10.20;99.90
23715;DHT22;12036;50.858;4.472;2023-11-21T03:57:12;10.20;99.90
23715;DHT22;12036;50.858;4.472;2023-11-21T03:59:41;10.20;99.90
23715;DHT22;12036;50.858;4.472;2023-11-21T04:02:07;10.20;99.90
23715;DHT22;12036;50.858;4.472;2023-11-21T04:04:34;10.20;99.90
23715;DHT22;12036;50.858;4.472;2023-11-21T04:06:59;10.20;99.90
23715;DHT22;12036;50.858;4.472;2023-11-21T04:09:25;10.20;99.90
23715;DHT22;12036;50.858;4.472;2023-11-21T04:11:52;10.20;99.90
23715;DHT22;12036;50.858;4.472;2023-11-21T04:14:18;10.20;99.90
23715;DHT22;12036;50.858;4.472;2023-11-21T04:16:43;10.20;99.90
23715;DHT22;12036;50.858;4.472;2023-11-21T04:19:09;10.20;99.90
23715;DHT22;12036;50.858;4.472;2023-11-21T04:21:36;10.20;99.90
23715;DHT22;12036;50.858;4.472;2023-11-21T04:24:02;10.20;99.90
23715;DHT22;12036;50.858;4.472;2023-11-21T04:26:28;10.20;99.90
23715;DHT22;12036;50.858;4.472;2023-11-21T04:28:53;10.20;99.90
23715;DHT22;12036;50.858;4.472;2023-11-21T04:31:19;10.20;99.90
23715;DHT22;12036;50.858;4.472;2023-11-21T04:33:44;10.20;99.90
23715;DHT22;12036;50.858;4.472;2023-11-21T04:36:10;10.20;99.90
23715;DHT22;12036;50.858;4.472;2023-11-21T04:38:36;10.20;99.90
23715;DHT22;12036;50.858;4.472;2023-11-21T04:41:02;10.20;99.90
23715;DHT22;12036;50.858;4.472;2023-11-21T04:43:27;10.20;99.90
23715;DHT22;12036;50.858;4.472;2023-11-21T04:45:54;10.20;99.90
23715;DHT22;12036;50.858;4.472;2023-11-21T04:48:20;10.10;99.90
23715;DHT22;12036;50.858;4.472;2023-11-21T04:50:45;10.10;99.90
23715;DHT22;12036;50.858;4.472;2023-11-21T04:53:11;10.10;99.90
23715;DHT22;12036;50.858;4.472;2023-11-21T04:55:40;10.10;99.90
23715;DHT22;12036;50.858;4.472;2023-11-21T04:58:06;10.10;99.90
23715;DHT22;12036;50.858;4.472;2023-11-21T05:00:32;10.10;99.90
23715;DHT22;12036;50.858;4.472;2023-11-21T05:02:57;10.10;99.90
23715;DHT22;12036;50.858;4.472;2023-11-21T05:05:23;10.10;99.90
23715;DHT22;12036;50.858;4.472;2023-11-21T05:07:49;10.10;99.90
23715;DHT22;12036;50.858;4.472;2023-11-21T05:10:15;10.10;99.90
23715;DHT22;12036;50.858;4.472;2023-11-21T05:12:43;10.10;99.90
23715;DHT22;12036;50.858;4.472;2023-11-21T05:15:12;10.10;99.90
23715;DHT22;12036;50.858;4.472;2023-11-21T05:17:40;10.10;99.90
23715;DHT22;12036;50.858;4.472;2023-11-21T05:20:10;10.10;99.90
23715;DHT22;12036;50.858;4.472;2023-11-21T05:22:37;10.10;99.90
23715;DHT22;12036;50.858;4.472;2023-11-21T05:25:03;10.10;99.90
23715;DHT22;12036;50.858;4.472;2023-11-21T05:27:30;10.20;99.90
23715;DHT22;12036;50.858;4.472;2023-11-21T05:29:59;10.20;99.90
23715;DHT22;12036;50.858;4.472;2023-11-21T05:32:25;10.20;99.90
23715;DHT22;12036;50.858;4.472;2023-11-21T05:34:51;10.20;99.90
23715;DHT22;12036;50.858;4.472;2023-11-21T05:37:17;10.20;99.90
23715;DHT22;12036;50.858;4.472;2023-11-21T05:39:43;10.20;99.90
23715;DHT22;12036;50.858;4.472;2023-11-21T05:42:08;10.20;99.90
23715;DHT22;12036;50.858;4.472;2023-11-21T05:44:36;10.20;99.90
23715;DHT22;12036;50.858;4.472;2023-11-21T05:47:02;10.20;99.90
23715;DHT22;12036;50.858;4.472;2023-11-21T05:49:29;10.20;99.90
23715;DHT22;12036;50.858;4.472;2023-11-21T05:51:55;10.20;99.90
23715;DHT22;12036;50.858;4.472;2023-11-21T05:54:21;10.20;99.90
23715;DHT22;12036;50.858;4.472;2023-11-21T05:56:49;10.20;99.90
23715;DHT22;12036;50.858;4.472;2023-11-21T05:59:15;10.10;99.90
23715;DHT22;12036;50.858;4.472;2023-11-21T06:01:40;10.20;99.90
23715;DHT22;12036;50.858;4.472;2023-11-21T06:04:06;10.20;99.90
23715;DHT22;12036;50.858;4.472;2023-11-21T06:06:33;10.20;99.90
23715;DHT22;12036;50.858;4.472;2023-11-21T06:08:59;10.20;99.90
23715;DHT22;12036;50.858;4.472;2023-11-21T06:11:25;10.30;99.90
23715;DHT22;12036;50.858;4.472;2023-11-21T06:13:51;10.30;99.90
23715;DHT22;12036;50.858;4.472;2023-11-21T06:16:18;10.30;99.90
23715;DHT22;12036;50.858;4.472;2023-11-21T06:18:45;10.30;99.90
23715;DHT22;12036;50.858;4.472;2023-11-21T06:21:11;10.30;99.90
23715;DHT22;12036;50.858;4.472;2023-11-21T06:23:37;10.30;99.90
23715;DHT22;12036;50.858;4.472;2023-11-21T06:26:03;10.30;99.90
23715;DHT22;12036;50.858;4.472;2023-11-21T06:28:30;10.30;99.90
23715;DHT22;12036;50.858;4.472;2023-11-21T06:30:56;10.30;99.90
23715;DHT22;12036;50.858;4.472;2023-11-21T06:33:24;10.30;99.90
23715;DHT22;12036;50.858;4.472;2023-11-21T06:35:53;10.30;99.90
23715;DHT22;12036;50.858;4.472;2023-11-21T06:38:18;10.30;99.90
23715;DHT22;12036;50.858;4.472;2023-11-21T06:40:45;10.30;99.90
23715;DHT22;12036;50.858;4.472;2023-11-21T06:43:11;10.30;99.90
23715;DHT22;12036;50.858;4.472;2023-11-21T06:45:36;10.30;99.90
23715;DHT22;12036;50.858;4.472;2023-11-21T06:48:02;10.30;99.90
23715;DHT22;12036;50.858;4.472;2023-11-21T06:50:28;10.40;99.90
23715;DHT22;12036;50.858;4.472;2023-11-21T06:52:53;10.40;99.90
23715;DHT22;12036;50.858;4.472;2023-11-21T06:55:19;10.40;99.90
23715;DHT22;12036;50.858;4.472;2023-11-21T06:57:45;10.40;99.90
23715;DHT22;12036;50.858;4.472;2023-11-21T07:00:12;10.40;99.90
23715;DHT22;12036;50.858;4.472;2023-11-21T07:02:38;10.40;99.90
23715;DHT22;12036;50.858;4.472;2023-11-21T07:05:05;10.40;99.90
23715;DHT22;12036;50.858;4.472;2023-11-21T07:07:31;10.40;99.90
23715;DHT22;12036;50.858;4.472;2023-11-21T07:09:56;10.40;99.90
23715;DHT22;12036;50.858;4.472;2023-11-21T07:12:22;10.40;99.90
23715;DHT22;12036;50.858;4.472;2023-11-21T07:14:49;10.40;99.90
23715;DHT22;12036;50.858;4.472;2023-11-21T07:17:14;10.40;99.90
23715;DHT22;12036;50.858;4.472;2023-11-21T07:19:42;10.50;99.90
23715;DHT22;12036;50.858;4.472;2023-11-21T07:22:08;10.50;99.90
23715;DHT22;12036;50.858;4.472;2023-11-21T07:24:34;10.50;99.90
23715;DHT22;12036;50.858;4.472;2023-11-21T07:27:00;10.50;99.90
23715;DHT22;12036;50.858;4.472;2023-11-21T07:29:26;10.50;99.90
23715;DHT22;12036;50.858;4.472;2023-11-21T07:31:52;10.50;99.90
23715;DHT22;12036;50.858;4.472;2023-11-21T07:34:20;10.50;99.90
23715;DHT22;12036;50.858;4.472;2023-11-21T07:36:46;10.50;99.90
23715;DHT22;12036;50.858;4.472;2023-11-21T07:39:11;10.60;99.90
23715;DHT22;12036;50.858;4.472;2023-11-21T07:41:37;10.60;99.90
23715;DHT22;12036;50.858;4.472;2023-11-21T07:44:10;10.60;99.90
23715;DHT22;12036;50.858;4.472;2023-11-21T07:46:36;10.60;99.90
23715;DHT22;12036;50.858;4.472;2023-11-21T07:49:01;10.60;99.90
23715;DHT22;12036;50.858;4.472;2023-11-21T07:51:27;10.60;99.90
23715;DHT22;12036;50.858;4.472;2023-11-21T07:53:53;10.60;99.90
23715;DHT22;12036;50.858;4.472;2023-11-21T07:56:18;10.70;99.90
23715;DHT22;12036;50.858;4.472;2023-11-21T07:58:44;10.70;99.90
23715;DHT22;12036;50.858;4.472;2023-11-21T08:01:10;10.70;99.90
23715;DHT22;12036;50.858;4.472;2023-11-21T08:03:36;10.70;99.90
23715;DHT22;12036;50.858;4.472;2023-11-21T08:06:02;10.70;99.90
23715;DHT22;12036;50.858;4.472;2023-11-21T08:08:32;10.80;99.90
23715;DHT22;12036;50.858;4.472;2023-11-21T08:10:58;10.80;99.90
23715;DHT22;12036;50.858;4.472;2023-11-21T08:13:28;10.80;99.90
23715;DHT22;12036;50.858;4.472;2023-11-21T08:15:54;10.80;99.90
23715;DHT22;12036;50.858;4.472;2023-11-21T08:18:21;10.80;99.90
23715;DHT22;12036;50.858;4.472;2023-11-21T08:20:46;10.80;99.90
23715;DHT22;12036;50.858;4.472;2023-11-21T08:23:16;10.80;99.90
23715;DHT22;12036;50.858;4.472;2023-11-21T08:25:45;10.80;99.90
23715;DHT22;12036;50.858;4.472;2023-11-21T08:28:12;10.80;99.90
23715;DHT22;12036;50.858;4.472;2023-11-21T08:30:40;10.80;99.90
23715;DHT22;12036;50.858;4.472;2023-11-21T08:33:07;10.80;99.90
23715;DHT22;12036;50.858;4.472;2023-11-21T08:35:34;10.90;99.90
23715;DHT22;12036;50.858;4.472;2023-11-21T08:37:59;10.90;99.90
23715;DHT22;12036;50.858;4.472;2023-11-21T08:40:25;10.90;99.90
23715;DHT22;12036;50.858;4.472;2023-11-21T08:42:51;11.00;99.90
23715;DHT22;12036;50.858;4.472;2023-11-21T08:45:20;11.00;99.90
23715;DHT22;12036;50.858;4.472;2023-11-21T08:47:47;11.00;99.90
23715;DHT22;12036;50.858;4.472;2023-11-21T08:50:13;11.00;99.90
23715;DHT22;12036;50.858;4.472;2023-11-21T08:52:39;11.10;99.90
23715;DHT22;12036;50.858;4.472;2023-11-21T08:55:06;11.00;99.90
23715;DHT22;12036;50.858;4.472;2023-11-21T08:57:40;11.00;99.90
23715;DHT22;12036;50.858;4.472;2023-11-21T09:00:10;11.10;99.90
23715;DHT22;12036;50.858;4.472;2023-11-21T09:02:41;11.00;99.90
23715;DHT22;12036;50.858;4.472;2023-11-21T09:05:08;11.10;99.90
23715;DHT22;12036;50.858;4.472;2023-11-21T09:07:35;11.10;99.90
23715;DHT22;12036;50.858;4.472;2023-11-21T09:10:01;11.10;99.90
23715;DHT22;12036;50.858;4.472;2023-11-21T09:12:27;11.10;99.90
23715;DHT22;12036;50.858;4.472;2023-11-21T09:14:52;11.20;99.90
23715;DHT22;12036;50.858;4.472;2023-11-21T09:17:18;11.20;99.90
23715;DHT22;12036;50.858;4.472;2023-11-21T09:19:44;11.20;99.90
23715;DHT22;12036;50.858;4.472;2023-11-21T09:22:12;11.30;99.90
23715;DHT22;12036;50.858;4.472;2023-11-21T09:24:38;11.30;99.90
23715;DHT22;12036;50.858;4.472;2023-11-21T09:27:04;11.30;99.90
23715;DHT22;12036;50.858;4.472;2023-11-21T09:29:30;11.30;99.90
23715;DHT22;12036;50.858;4.472;2023-11-21T09:31:57;11.20;99.90
23715;DHT22;12036;50.858;4.472;2023-11-21T09:34:25;11.20;99.90
23715;DHT22;12036;50.858;4.472;2023-11-21T09:36:51;11.30;99.90
23715;DHT22;12036;50.858;4.472;2023-11-21T09:39:17;11.20;99.90
23715;DHT22;12036;50.858;4.472;2023-11-21T09:41:56;11.30;99.90
23715;DHT22;12036;50.858;4.472;2023-11-21T09:44:36;11.30;99.90
23715;DHT22;12036;50.858;4.472;2023-11-21T09:47:05;11.30;99.90
23715;DHT22;12036;50.858;4.472;2023-11-21T09:49:36;11.30;99.90
23715;DHT22;12036;50.858;4.472;2023-11-21T09:52:03;11.30;99.90
23715;DHT22;12036;50.858;4.472;2023-11-21T09:54:30;11.30;99.90
23715;DHT22;12036;50.858;4.472;2023-11-21T09:56:59;11.40;99.90
23715;DHT22;12036;50.858;4.472;2023-11-21T09:59:30;11.40;99.90
23715;DHT22;12036;50.858;4.472;2023-11-21T10:01:57;11.40;99.90
23715;DHT22;12036;50.858;4.472;2023-11-21T10:04:24;11.40;99.90
23715;DHT22;12036;50.858;4.472;2023-11-21T10:06:50;11.50;99.90
23715;DHT22;12036;50.858;4.472;2023-11-21T10:09:17;11.50;99.90
23715;DHT22;12036;50.858;4.472;2023-11-21T10:11:47;11.50;99.90
23715;DHT22;12036;50.858;4.472;2023-11-21T10:14:18;11.50;99.90
23715;DHT22;12036;50.858;4.472;2023-11-21T10:16:44;11.50;99.90
23715;DHT22;12036;50.858;4.472;2023-11-21T10:19:13;11.50;99.90
23715;DHT22;12036;50.858;4.472;2023-11-21T10:21:42;11.50;99.90
23715;DHT22;12036;50.858;4.472;2023-11-21T10:24:08;11.50;99.90
23715;DHT22;12036;50.858;4.472;2023-11-21T10:26:34;11.50;99.90
23715;DHT22;12036;50.858;4.472;2023-11-21T10:29:02;11.50;99.90
23715;DHT22;12036;50.858;4.472;2023-11-21T10:31:31;11.50;99.90
23715;DHT22;12036;50.858;4.472;2023-11-21T10:34:18;11.50;99.90
23715;DHT22;12036;50.858;4.472;2023-11-21T10:36:44;11.70;99.90
23715;DHT22;12036;50.858;4.472;2023-11-21T10:39:20;11.70;99.90
23715;DHT22;12036;50.858;4.472;2023-11-21T10:41:49;11.80;99.90
23715;DHT22;12036;50.858;4.472;2023-11-21T10:44:17;11.90;99.90
23715;DHT22;12036;50.858;4.472;2023-11-21T10:46:50;11.90;99.90
23715;DHT22;12036;50.858;4.472;2023-11-21T10:49:20;12.00;99.90
23715;DHT22;12036;50.858;4.472;2023-11-21T10:51:46;12.00;99.90
23715;DHT22;12036;50.858;4.472;2023-11-21T10:54:18;12.00;99.90
23715;DHT22;12036;50.858;4.472;2023-11-21T10:56:44;12.00;99.90
23715;DHT22;12036;50.858;4.472;2023-11-21T10:59:10;12.10;99.90
23715;DHT22;12036;50.858;4.472;2023-11-21T11:01:44;12.10;99.90
23715;DHT22;12036;50.858;4.472;2023-11-21T11:04:11;12.10;99.90
23715;DHT22;12036;50.858;4.472;2023-11-21T11:06:48;12.10;99.90
23715;DHT22;12036;50.858;4.472;2023-11-21T11:09:17;12.10;99.90
23715;DHT22;12036;50.858;4.472;2023-11-21T11:11:43;12.10;99.90
23715;DHT22;12036;50.858;4.472;2023-11-21T11:14:12;12.20;99.90
23715;DHT22;12036;50.858;4.472;2023-11-21T11:16:41;12.20;99.90
23715;DHT22;12036;50.858;4.472;2023-11-21T11:19:09;12.20;99.90
23715;DHT22;12036;50.858;4.472;2023-11-21T11:32:30;12.20;99.90
23715;DHT22;12036;50.858;4.472;2023-11-21T11:35:01;12.30;99.90
23715;DHT22;12036;50.858;4.472;2023-11-21T11:37:29;12.30;99.90
23715;DHT22;12036;50.858;4.472;2023-11-21T11:39:55;12.30;99.90
23715;DHT22;12036;50.858;4.472;2023-11-21T11:42:22;12.40;99.90
23715;DHT22;12036;50.858;4.472;2023-11-21T11:44:50;12.40;99.90
23715;DHT22;12036;50.858;4.472;2023-11-21T11:47:29;12.50;99.90
23715;DHT22;12036;50.858;4.472;2023-11-21T11:52:40;12.60;99.90
23715;DHT22;12036;50.858;4.472;2023-11-21T11:55:08;12.70;99.90
23715;DHT22;12036;50.858;4.472;2023-11-21T11:57:38;12.60;99.90
23715;DHT22;12036;50.858;4.472;2023-11-21T12:00:11;12.60;99.90
23715;DHT22;12036;50.858;4.472;2023-11-21T12:02:41;12.50;99.90
23715;DHT22;12036;50.858;4.472;2023-11-21T12:05:11;12.50;99.90
23715;DHT22;12036;50.858;4.472;2023-11-21T12:07:49;12.40;99.90
23715;DHT22;12036;50.858;4.472;2023-11-21T12:10:16;12.40;99.90
23715;DHT22;12036;50.858;4.472;2023-11-21T12:12:48;12.30;99.90
23715;DHT22;12036;50.858;4.472;2023-11-21T12:15:14;12.20;99.90
23715;DHT22;12036;50.858;4.472;2023-11-21T12:17:42;12.20;99.90
23715;DHT22;12036;50.858;4.472;2023-11-21T12:20:09;12.20;99.90
23715;DHT22;12036;50.858;4.472;2023-11-21T12:22:48;12.10;99.90
23715;DHT22;12036;50.858;4.472;2023-11-21T12:25:15;12.20;99.90
23715;DHT22;12036;50.858;4.472;2023-11-21T12:27:45;12.10;99.90
23715;DHT22;12036;50.858;4.472;2023-11-21T12:30:12;12.00;99.90
23715;DHT22;12036;50.858;4.472;2023-11-21T12:32:51;12.00;99.90
23715;DHT22;12036;50.858;4.472;2023-11-21T12:35:18;12.00;99.90
23715;DHT22;12036;50.858;4.472;2023-11-21T12:37:45;11.90;99.90
23715;DHT22;12036;50.858;4.472;2023-11-21T12:40:12;11.90;99.90
23715;DHT22;12036;50.858;4.472;2023-11-21T12:42:45;11.90;99.90
23715;DHT22;12036;50.858;4.472;2023-11-21T12:50:13;11.90;99.90
23715;DHT22;12036;50.858;4.472;2023-11-21T12:52:43;11.80;99.90
23715;DHT22;12036;50.858;4.472;2023-11-21T12:55:16;11.90;99.90
23715;DHT22;12036;50.858;4.472;2023-11-21T12:57:47;11.90;99.90
23715;DHT22;12036;50.858;4.472;2023-11-21T13:00:16;12.00;99.90
23715;DHT22;12036;50.858;4.472;2023-11-21T13:02:56;12.00;99.90
23715;DHT22;12036;50.858;4.472;2023-11-21T13:05:29;12.00;99.90
23715;DHT22;12036;50.858;4.472;2023-11-21T13:08:02;12.00;99.90
23715;DHT22;12036;50.858;4.472;2023-11-21T13:10:30;12.00;99.90
23715;DHT22;12036;50.858;4.472;2023-11-21T13:13:00;11.90;99.90
23715;DHT22;12036;50.858;4.472;2023-11-21T13:15:29;11.90;99.90
23715;DHT22;12036;50.858;4.472;2023-11-21T13:17:57;11.90;99.90
23715;DHT22;12036;50.858;4.472;2023-11-21T13:20:24;11.80;99.90
23715;DHT22;12036;50.858;4.472;2023-11-21T13:22:57;11.70;99.90
23715;DHT22;12036;50.858;4.472;2023-11-21T13:25:25;11.70;99.90
23715;DHT22;12036;50.858;4.472;2023-11-21T13:27:58;11.70;99.90
23715;DHT22;12036;50.858;4.472;2023-11-21T13:30:25;11.60;99.90
23715;DHT22;12036;50.858;4.472;2023-11-21T13:32:59;11.60;99.90
23715;DHT22;12036;50.858;4.472;2023-11-21T13:35:31;11.50;99.90
23715;DHT22;12036;50.858;4.472;2023-11-21T13:38:15;11.60;99.90
23715;DHT22;12036;50.858;4.472;2023-11-21T13:40:51;11.60;99.90
23715;DHT22;12036;50.858;4.472;2023-11-21T13:43:20;11.60;99.90
23715;DHT22;12036;50.858;4.472;2023-11-21T13:45:48;11.60;99.90
23715;DHT22;12036;50.858;4.472;2023-11-21T13:48:20;11.60;99.90
23715;DHT22;12036;50.858;4.472;2023-11-21T13:50:53;11.70;99.90
23715;DHT22;12036;50.858;4.472;2023-11-21T13:53:27;11.60;99.90
23715;DHT22;12036;50.858;4.472;2023-11-21T13:55:56;11.70;99.90
23715;DHT22;12036;50.858;4.472;2023-11-21T13:58:23;11.70;99.90
23715;DHT22;12036;50.858;4.472;2023-11-21T14:01:00;11.60;99.90
23715;DHT22;12036;50.858;4.472;2023-11-21T14:03:31;11.70;99.90
23715;DHT22;12036;50.858;4.472;2023-11-21T14:06:05;11.70;99.90
23715;DHT22;12036;50.858;4.472;2023-11-21T14:08:40;11.70;99.90
23715;DHT22;12036;50.858;4.472;2023-11-21T14:11:07;11.60;99.90
23715;DHT22;12036;50.858;4.472;2023-11-21T14:13:32;11.70;99.90
23715;DHT22;12036;50.858;4.472;2023-11-21T14:15:59;11.70;99.90
23715;DHT22;12036;50.858;4.472;2023-11-21T14:18:28;11.70;99.90
23715;DHT22;12036;50.858;4.472;2023-11-21T14:21:06;11.70;99.90
23715;DHT22;12036;50.858;4.472;2023-11-21T14:23:33;11.80;99.90
23715;DHT22;12036;50.858;4.472;2023-11-21T14:26:01;11.70;99.90
23715;DHT22;12036;50.858;4.472;2023-11-21T14:28:27;11.70;99.90
23715;DHT22;12036;50.858;4.472;2023-11-21T14:30:52;11.70;99.90
23715;DHT22;12036;50.858;4.472;2023-11-21T14:33:18;11.60;99.90
23715;DHT22;12036;50.858;4.472;2023-11-21T14:35:44;11.60;99.90
23715;DHT22;12036;50.858;4.472;2023-11-21T14:38:10;11.60;99.90
23715;DHT22;12036;50.858;4.472;2023-11-21T14:40:36;11.60;99.90
23715;DHT22;12036;50.858;4.472;2023-11-21T14:43:05;11.50;99.90
23715;DHT22;12036;50.858;4.472;2023-11-21T14:45:32;11.50;99.90
23715;DHT22;12036;50.858;4.472;2023-11-21T14:47:57;11.60;99.90
23715;DHT22;12036;50.858;4.472;2023-11-21T14:50:32;11.50;99.90
23715;DHT22;12036;50.858;4.472;2023-11-21T14:53:14;11.50;99.90
23715;DHT22;12036;50.858;4.472;2023-11-21T14:55:40;11.50;99.90
23715;DHT22;12036;50.858;4.472;2023-11-21T14:58:22;11.50;99.90
23715;DHT22;12036;50.858;4.472;2023-11-21T15:00:57;11.50;99.90
23715;DHT22;12036;50.858;4.472;2023-11-21T15:03:27;11.50;99.90
23715;DHT22;12036;50.858;4.472;2023-11-21T15:05:59;11.40;99.90
23715;DHT22;12036;50.858;4.472;2023-11-21T15:08:42;11.30;99.90
23715;DHT22;12036;50.858;4.472;2023-11-21T15:11:08;11.40;99.90
23715;DHT22;12036;50.858;4.472;2023-11-21T15:13:40;11.40;99.90
23715;DHT22;12036;50.858;4.472;2023-11-21T15:16:07;11.40;99.90
23715;DHT22;12036;50.858;4.472;2023-11-21T15:18:34;11.50;99.90
23715;DHT22;12036;50.858;4.472;2023-11-21T15:21:01;11.50;99.90
23715;DHT22;12036;50.858;4.472;2023-11-21T15:23:29;11.40;99.90
23715;DHT22;12036;50.858;4.472;2023-11-21T15:25:56;11.30;99.90
23715;DHT22;12036;50.858;4.472;2023-11-21T15:28:23;11.30;99.90
23715;DHT22;12036;50.858;4.472;2023-11-21T15:30:50;11.20;99.90
23715;DHT22;12036;50.858;4.472;2023-11-21T15:33:17;11.30;99.90
23715;DHT22;12036;50.858;4.472;2023-11-21T15:35:43;11.30;99.90
23715;DHT22;12036;50.858;4.472;2023-11-21T15:38:08;11.20;99.90
23715;DHT22;12036;50.858;4.472;2023-11-21T15:40:34;11.20;99.90
23715;DHT22;12036;50.858;4.472;2023-11-21T15:43:00;11.20;99.90
23715;DHT22;12036;50.858;4.472;2023-11-21T15:45:28;11.30;99.90
23715;DHT22;12036;50.858;4.472;2023-11-21T15:47:54;11.30;99.90
23715;DHT22;12036;50.858;4.472;2023-11-21T15:50:21;11.30;99.90
23715;DHT22;12036;50.858;4.472;2023-11-21T15:52:47;11.30;99.90
23715;DHT22;12036;50.858;4.472;2023-11-21T15:55:13;11.20;99.90